Time;durP1;ratioP1;P1;durP2;ratioP2;P2;SDS_P1;SDS_P2;PMS_P1;PMS_P2;Temp;Humidity;BMP_temperature;BMP_pressure;BME280_temperature;BME280_humidity;BME280_pressure;Samples;Min_cycle;Max_cycle;Signal;HPM_P1;HPM_P2
2023/07/05 00:01:54;;;;;;;4.00;1.80;;;14.70;99.90;;;;;;5135620;27;20463;-44
2023/07/05 00:04:19;;;;;;;5.53;1.70;;;14.70;99.90;;;;;;5135306;27;20296;-45
2023/07/05 00:06:46;;;;;;;3.73;1.30;;;14.60;99.90;;;;;;5135219;27;20039;-45
2023/07/05 00:09:11;;;;;;;3.90;1.38;;;14.60;99.90;;;;;;5135256;27;20291;-45
2023/07/05 00:11:37;;;;;;;3.50;1.50;;;14.60;99.90;;;;;;5135111;27;20043;-44
2023/07/05 00:14:03;;;;;;;4.83;1.43;;;14.60;99.90;;;;;;5134999;27;20039;-45
2023/07/05 00:16:28;;;;;;;4.47;1.70;;;14.60;99.90;;;;;;5135175;27;20099;-45
2023/07/05 00:18:54;;;;;;;4.67;1.90;;;14.60;99.90;;;;;;5116874;27;20035;-44
2023/07/05 00:21:19;;;;;;;3.83;1.50;;;14.60;99.90;;;;;;5135120;27;20096;-45
2023/07/05 00:23:48;;;;;;;4.10;1.60;;;14.50;99.90;;;;;;5116806;27;20088;-45
2023/07/05 00:26:14;;;;;;;4.85;1.83;;;14.60;99.90;;;;;;5134837;27;20126;-45
2023/07/05 00:28:39;;;;;;;4.07;1.50;;;14.50;99.90;;;;;;5116688;27;20510;-44
2023/07/05 00:31:06;;;;;;;5.13;1.70;;;14.60;99.90;;;;;;5134568;27;20389;-45
2023/07/05 00:33:32;;;;;;;7.40;1.80;;;14.50;99.90;;;;;;5134882;27;20099;-45
2023/07/05 00:35:58;;;;;;;5.72;1.55;;;14.50;99.90;;;;;;5135566;27;20047;-44
2023/07/05 00:38:23;;;;;;;6.20;2.20;;;14.50;99.90;;;;;;5134712;27;20043;-45
2023/07/05 00:40:50;;;;;;;5.22;2.10;;;14.50;99.90;;;;;;5134610;27;20049;-44
2023/07/05 00:43:17;;;;;;;4.43;1.85;;;14.50;99.90;;;;;;5134428;27;20047;-45
2023/07/05 00:45:58;;;;;;;6.55;2.60;;;14.50;99.90;;;;;;5134714;27;20507;-46
2023/07/05 00:48:51;;;;;;;5.00;2.45;;;14.50;99.90;;;;;;5134779;27;20096;-47
2023/07/05 00:51:20;;;;;;;4.38;2.20;;;14.50;99.90;;;;;;5134685;27;20043;-46
2023/07/05 00:53:46;;;;;;;5.90;2.38;;;14.50;99.90;;;;;;5134461;27;20168;-46
2023/07/05 00:56:21;;;;;;;5.93;2.45;;;14.50;99.90;;;;;;5116102;28;20130;-46
2023/07/05 00:58:48;;;;;;;4.40;2.13;;;14.50;99.90;;;;;;5134727;28;20078;-46
2023/07/05 01:01:14;;;;;;;5.78;2.50;;;14.40;99.90;;;;;;5134746;28;20429;-46
2023/07/05 01:03:42;;;;;;;6.25;2.60;;;14.40;99.90;;;;;;5134489;28;20050;-45
2023/07/05 01:06:08;;;;;;;6.80;2.63;;;14.40;99.90;;;;;;5134456;28;20123;-44
2023/07/05 01:08:33;;;;;;;4.47;2.33;;;14.40;99.90;;;;;;5116442;28;20078;-45
2023/07/05 01:11:14;;;;;;;7.23;2.70;;;14.40;99.90;;;;;;5116203;28;20399;-45
2023/07/05 01:13:51;;;;;;;5.82;2.90;;;14.40;99.90;;;;;;5134503;28;20040;-46
2023/07/05 01:16:38;;;;;;;5.28;3.08;;;14.40;99.90;;;;;;5134463;28;20046;-46
2023/07/05 01:19:05;;;;;;;7.00;2.70;;;14.40;99.90;;;;;;5134535;28;20475;-44
2023/07/05 01:21:51;;;;;;;5.40;2.90;;;14.50;99.90;;;;;;5134186;28;20509;-45
2023/07/05 01:24:35;;;;;;;5.25;3.13;;;14.50;99.90;;;;;;5134283;28;20046;-45
2023/07/05 01:27:23;;;;;;;6.43;3.13;;;14.50;99.90;;;;;;5134241;28;20072;-44
2023/07/05 01:30:16;;;;;;;7.20;3.15;;;14.60;99.90;;;;;;5134349;28;20050;-44
2023/07/05 01:33:02;;;;;;;8.02;3.15;;;14.60;99.90;;;;;;5116139;28;20126;-46
2023/07/05 01:35:44;;;;;;;6.82;3.63;;;14.60;99.90;;;;;;5134222;28;20043;-45
2023/07/05 01:38:09;;;;;;;6.95;3.15;;;14.60;99.90;;;;;;5134226;28;20051;-45
2023/07/05 01:40:36;;;;;;;7.33;3.40;;;14.70;99.90;;;;;;5116048;28;20054;-45
2023/07/05 01:43:10;;;;;;;8.15;3.30;;;14.70;99.90;;;;;;5135912;27;20345;-45
2023/07/05 01:45:48;;;;;;;7.95;3.88;;;14.70;99.90;;;;;;5119839;27;20039;-45
2023/07/05 01:48:34;;;;;;;10.02;3.65;;;14.70;99.90;;;;;;5119918;27;20134;-45
2023/07/05 01:51:43;;;;;;;6.90;3.80;;;14.70;99.90;;;;;;5119980;27;20459;-44
2023/07/05 01:54:47;;;;;;;7.10;3.05;;;14.70;99.90;;;;;;5136889;27;20051;-44
2023/07/05 01:57:22;;;;;;;6.90;3.35;;;14.70;99.90;;;;;;5138459;27;20051;-44
2023/07/05 02:00:07;;;;;;;7.57;3.42;;;14.70;99.90;;;;;;5137709;27;20039;-44
2023/07/05 02:02:46;;;;;;;7.60;3.50;;;14.70;99.90;;;;;;5137467;27;20043;-44
2023/07/05 02:05:14;;;;;;;6.38;3.38;;;14.70;99.90;;;;;;5137897;27;20051;-44
2023/07/05 02:07:43;;;;;;;7.03;3.47;;;14.70;99.90;;;;;;5138062;27;20132;-44
2023/07/05 02:10:08;;;;;;;6.75;3.67;;;14.60;99.90;;;;;;5137686;27;20051;-44
2023/07/05 02:12:34;;;;;;;6.68;3.20;;;14.60;99.90;;;;;;5119397;27;20107;-46
2023/07/05 02:15:00;;;;;;;7.87;4.00;;;14.60;99.90;;;;;;5119320;27;20043;-44
2023/07/05 02:17:25;;;;;;;8.53;3.73;;;14.60;99.90;;;;;;5120047;27;20149;-45
2023/07/05 02:19:51;;;;;;;5.65;3.28;;;14.50;99.90;;;;;;5137488;27;20047;-45
2023/07/05 02:22:19;;;;;;;6.97;3.90;;;14.50;99.90;;;;;;5137293;27;20051;-46
2023/07/05 02:24:45;;;;;;;7.38;3.58;;;14.50;99.90;;;;;;5119461;27;20088;-44
2023/07/05 02:27:11;;;;;;;8.50;3.80;;;14.50;99.90;;;;;;5137101;27;20070;-44
2023/07/05 02:29:37;;;;;;;7.00;3.28;;;14.50;99.90;;;;;;5136984;27;20043;-44
2023/07/05 02:32:03;;;;;;;5.80;3.47;;;14.50;99.90;;;;;;5137252;27;20047;-44
2023/07/05 02:34:29;;;;;;;7.00;3.80;;;14.50;99.90;;;;;;5137246;27;20067;-45
2023/07/05 02:36:55;;;;;;;9.50;4.20;;;14.50;99.90;;;;;;5118951;27;20391;-45
2023/07/05 02:39:20;;;;;;;7.38;4.18;;;14.50;99.90;;;;;;5137124;27;20054;-45
2023/07/05 02:41:46;;;;;;;7.37;3.77;;;14.50;99.90;;;;;;5136822;27;20047;-45
2023/07/05 02:44:11;;;;;;;7.00;3.37;;;14.50;99.90;;;;;;5136972;27;20047;-45
2023/07/05 02:46:37;;;;;;;10.07;4.40;;;14.40;99.90;;;;;;5118641;27;20059;-45
2023/07/05 02:49:04;;;;;;;8.03;4.17;;;14.40;99.90;;;;;;5136923;27;20365;-44
2023/07/05 02:51:32;;;;;;;7.13;4.05;;;14.40;99.90;;;;;;5136765;27;20507;-45
2023/07/05 02:53:57;;;;;;;8.77;3.88;;;14.40;99.90;;;;;;5117978;27;20121;-44
2023/07/05 02:56:24;;;;;;;7.18;4.40;;;14.40;99.90;;;;;;5136609;27;20158;-45
2023/07/05 02:58:50;;;;;;;;;;;14.40;99.90;;;;;;5137089;27;20129;-45
2023/07/05 03:01:15;;;;;;;7.75;3.70;;;14.40;99.90;;;;;;5136633;27;20019;-45
2023/07/05 03:03:41;;;;;;;9.17;5.63;;;14.40;99.90;;;;;;5118314;27;20129;-45
2023/07/05 03:06:07;;;;;;;9.17;4.80;;;14.40;99.90;;;;;;5118299;27;20073;-44
2023/07/05 03:08:32;;;;;;;8.83;4.73;;;14.30;99.90;;;;;;5136531;27;20043;-44
2023/07/05 03:10:59;;;;;;;10.63;4.80;;;14.30;99.90;;;;;;5136325;27;20051;-44
2023/07/05 03:13:26;;;;;;;;;;;14.30;99.90;;;;;;5136634;27;20035;-45
2023/07/05 03:15:51;;;;;;;8.67;4.50;;;14.40;99.90;;;;;;5136724;27;19920;-44
2023/07/05 03:18:17;;;;;;;8.73;4.43;;;14.30;99.90;;;;;;5136332;27;20373;-46
2023/07/05 03:20:47;;;;;;;10.07;4.85;;;14.30;99.90;;;;;;5136270;27;20050;-44
2023/07/05 03:23:14;;;;;;;9.70;4.38;;;14.40;99.90;;;;;;5117590;27;20067;-44
2023/07/05 03:25:40;;;;;;;8.18;4.68;;;14.30;99.90;;;;;;5135966;27;20507;-45
2023/07/05 03:28:06;;;;;;;9.80;4.90;;;14.40;99.90;;;;;;5117684;27;20074;-44
2023/07/05 03:30:33;;;;;;;13.47;5.40;;;14.40;99.90;;;;;;5136068;27;20090;-44
2023/07/05 03:32:59;;;;;;;8.05;4.40;;;14.40;99.90;;;;;;5135989;27;20093;-45
2023/07/05 03:35:25;;;;;;;9.65;4.47;;;14.40;99.90;;;;;;5117614;27;20047;-45
2023/07/05 03:37:51;;;;;;;10.07;5.07;;;14.40;99.90;;;;;;5135956;27;20541;-44
2023/07/05 03:40:16;;;;;;;10.27;4.70;;;14.40;99.90;;;;;;5135733;27;20047;-46
2023/07/05 03:42:42;;;;;;;10.67;5.97;;;14.40;99.90;;;;;;5100387;27;20312;-44
2023/07/05 03:45:08;;;;;;;8.15;4.50;;;14.40;99.90;;;;;;5135733;27;20050;-44
2023/07/05 03:47:34;;;;;;;8.68;4.60;;;14.40;99.90;;;;;;5135692;27;20043;-44
2023/07/05 03:49:59;;;;;;;8.53;5.03;;;14.40;99.90;;;;;;5135447;27;20051;-44
2023/07/05 03:52:25;;;;;;;9.55;4.80;;;14.40;99.90;;;;;;5135647;27;20126;-45
2023/07/05 03:54:51;;;;;;;11.45;5.20;;;14.40;99.90;;;;;;5135516;27;20049;-45
2023/07/05 03:57:17;;;;;;;8.85;4.35;;;14.40;99.90;;;;;;5116988;27;20398;-45
2023/07/05 03:59:43;;;;;;;10.23;4.85;;;14.40;99.90;;;;;;5135298;27;20050;-44
2023/07/05 04:02:08;;;;;;;8.17;4.60;;;14.40;99.90;;;;;;5117029;27;20086;-45
2023/07/05 04:04:34;;;;;;;8.73;4.43;;;14.50;99.90;;;;;;5135601;27;20042;-45
2023/07/05 04:07:00;;;;;;;9.63;4.60;;;14.50;99.90;;;;;;5116631;27;20065;-45
2023/07/05 04:09:26;;;;;;;10.67;4.67;;;14.50;99.90;;;;;;5135139;27;20273;-45
2023/07/05 04:11:52;;;;;;;9.07;4.32;;;14.50;99.90;;;;;;5117156;27;20099;-44
2023/07/05 04:14:18;;;;;;;8.15;4.45;;;14.50;99.90;;;;;;5135217;27;20068;-44
2023/07/05 04:16:43;;;;;;;9.60;4.03;;;14.60;99.90;;;;;;5135264;27;20495;-45
2023/07/05 04:19:09;;;;;;;8.13;4.80;;;14.60;99.90;;;;;;5135135;27;20610;-44
2023/07/05 04:21:35;;;;;;;9.50;4.35;;;14.60;99.90;;;;;;5134920;27;20309;-45
2023/07/05 04:24:01;;;;;;;10.17;4.83;;;14.70;99.90;;;;;;5134879;27;20123;-45
2023/07/05 04:26:28;;;;;;;10.20;4.85;;;14.70;99.90;;;;;;5134896;27;20304;-44
2023/07/05 04:28:54;;;;;;;9.13;5.00;;;14.70;99.90;;;;;;5134945;27;20055;-45
2023/07/05 04:31:27;;;;;;;8.85;4.10;;;14.70;99.90;;;;;;5134997;27;20133;-44
2023/07/05 04:33:53;;;;;;;7.43;4.13;;;14.70;99.90;;;;;;5134845;27;20039;-46
2023/07/05 04:36:19;;;;;;;9.90;4.25;;;14.80;99.90;;;;;;5134811;27;20050;-45
2023/07/05 04:38:45;;;;;;;11.13;4.03;;;14.80;99.90;;;;;;5116624;27;20047;-46
2023/07/05 04:41:10;;;;;;;9.37;4.10;;;14.90;99.90;;;;;;5099501;27;20331;-44
2023/07/05 04:43:36;;;;;;;10.03;4.13;;;14.90;99.90;;;;;;5134741;27;20429;-46
2023/07/05 04:46:02;;;;;;;7.47;3.60;;;14.90;99.90;;;;;;5116729;27;20514;-44
2023/07/05 04:48:29;;;;;;;9.18;3.95;;;14.90;99.90;;;;;;5134662;27;20470;-45
2023/07/05 04:50:57;;;;;;;8.73;4.30;;;15.00;99.90;;;;;;5134695;27;20487;-45
2023/07/05 04:53:26;;;;;;;7.32;4.45;;;15.00;99.90;;;;;;5134461;27;20118;-45
2023/07/05 04:55:54;;;;;;;7.50;3.60;;;15.10;99.90;;;;;;5134489;27;20104;-43
2023/07/05 04:58:20;;;;;;;6.40;4.05;;;15.00;99.90;;;;;;5134873;27;20054;-44
2023/07/05 05:00:49;;;;;;;6.90;3.53;;;15.00;99.90;;;;;;5134601;28;20043;-44
2023/07/05 05:03:19;;;;;;;8.13;3.30;;;15.10;99.90;;;;;;5134379;28;20377;-44
2023/07/05 05:05:48;;;;;;;8.10;4.00;;;15.10;99.90;;;;;;5134450;28;20502;-44
2023/07/05 05:08:13;;;;;;;6.55;3.22;;;15.10;99.90;;;;;;5134426;28;20054;-44
2023/07/05 05:10:39;;;;;;;7.10;3.47;;;15.10;99.90;;;;;;5134483;28;20043;-44
2023/07/05 05:13:07;;;;;;;7.68;3.60;;;15.10;99.90;;;;;;5134606;28;20275;-44
2023/07/05 05:15:39;;;;;;;8.02;3.45;;;15.20;99.90;;;;;;5134420;28;20039;-44
2023/07/05 05:18:07;;;;;;;6.03;2.80;;;15.20;99.90;;;;;;5136486;27;20111;-44
2023/07/05 05:20:33;;;;;;;5.53;2.47;;;15.20;99.90;;;;;;5138570;27;20050;-44
2023/07/05 05:22:59;;;;;;;5.90;1.98;;;15.10;99.90;;;;;;5138502;27;20046;-44
2023/07/05 05:25:27;;;;;;;5.38;1.73;;;15.10;99.90;;;;;;5138617;27;20047;-44
2023/07/05 05:27:52;;;;;;;5.35;1.75;;;15.10;99.90;;;;;;5138364;27;20086;-44
2023/07/05 05:30:18;;;;;;;4.93;1.95;;;15.00;99.90;;;;;;5138383;27;20078;-44
2023/07/05 05:32:45;;;;;;;3.05;1.35;;;15.00;99.90;;;;;;5138396;27;20039;-44
2023/07/05 05:35:11;;;;;;;4.80;1.65;;;14.90;99.90;;;;;;5138183;27;20043;-44
2023/07/05 05:37:37;;;;;;;4.68;1.90;;;14.90;99.90;;;;;;5138314;27;20047;-44
2023/07/05 05:40:05;;;;;;;4.50;1.70;;;14.80;99.90;;;;;;5119929;27;20047;-45
2023/07/05 05:42:31;;;;;;;4.40;1.58;;;14.80;99.90;;;;;;5138025;27;20047;-45
2023/07/05 05:44:57;;;;;;;5.40;1.83;;;14.80;99.90;;;;;;5137997;27;20043;-46
2023/07/05 05:47:23;;;;;;;4.20;2.08;;;14.70;99.90;;;;;;5138036;27;20091;-46
2023/07/05 05:49:49;;;;;;;5.72;1.85;;;14.70;99.90;;;;;;5137970;27;20050;-45
2023/07/05 05:52:14;;;;;;;3.22;1.80;;;14.70;99.90;;;;;;5138736;27;20043;-46
2023/07/05 05:54:40;;;;;;;6.95;2.30;;;14.80;99.90;;;;;;5119673;27;20441;-46
2023/07/05 05:57:06;;;;;;;4.77;2.00;;;14.80;99.90;;;;;;5138042;27;20130;-45
2023/07/05 05:59:32;;;;;;;4.65;2.55;;;14.80;99.90;;;;;;5137827;27;20633;-45
2023/07/05 06:01:58;;;;;;;4.95;1.80;;;14.90;99.90;;;;;;5137930;27;20105;-51
2023/07/05 06:04:24;;;;;;;5.90;1.73;;;15.00;99.90;;;;;;5119179;27;20487;-45
2023/07/05 06:06:49;;;;;;;5.07;2.20;;;15.00;99.90;;;;;;5137710;27;20051;-49
2023/07/05 06:09:15;;;;;;;4.87;1.87;;;15.00;99.90;;;;;;5119336;27;20051;-46
2023/07/05 06:11:41;;;;;;;4.80;1.90;;;15.00;99.90;;;;;;5137605;27;20281;-46
2023/07/05 06:14:08;;;;;;;4.07;1.67;;;15.10;99.90;;;;;;5119211;27;20047;-48
2023/07/05 06:16:34;;;;;;;4.40;1.85;;;15.10;99.90;;;;;;5137466;27;20055;-47
2023/07/05 06:19:00;;;;;;;4.68;1.90;;;15.10;99.90;;;;;;5137128;27;20043;-47
2023/07/05 06:21:26;;;;;;;4.78;1.80;;;15.10;99.90;;;;;;5137385;27;20089;-47
2023/07/05 06:23:51;;;;;;;6.18;1.95;;;15.20;99.90;;;;;;5137363;27;20082;-47
2023/07/05 06:26:18;;;;;;;4.57;1.50;;;15.20;99.90;;;;;;5137329;27;20399;-46
2023/07/05 06:28:45;;;;;;;4.38;1.58;;;15.20;99.90;;;;;;5136428;27;20043;-47
2023/07/05 06:31:11;;;;;;;4.60;1.70;;;15.30;99.90;;;;;;5136931;27;20057;-47
2023/07/05 06:33:37;;;;;;;5.97;2.08;;;15.30;99.90;;;;;;5137070;27;20043;-47
2023/07/05 06:36:05;;;;;;;4.53;1.67;;;15.30;99.90;;;;;;5137110;27;20083;-47
2023/07/05 06:38:31;;;;;;;4.28;1.73;;;15.30;99.90;;;;;;5102110;27;20047;-47
2023/07/05 06:40:57;;;;;;;6.32;2.78;;;15.30;99.90;;;;;;5136944;27;20051;-47
2023/07/05 06:43:23;;;;;;;4.55;1.63;;;15.20;99.90;;;;;;5118711;27;20426;-46
2023/07/05 06:45:55;;;;;;;4.80;1.60;;;15.30;99.90;;;;;;5118624;27;20463;-47
2023/07/05 06:48:21;;;;;;;3.90;1.50;;;15.30;99.90;;;;;;5136798;27;20039;-47
2023/07/05 06:50:55;;;;;;;4.43;1.48;;;15.30;99.90;;;;;;5136818;27;20488;-46
2023/07/05 06:53:21;;;;;;;5.28;1.48;;;15.40;99.90;;;;;;5136675;27;20035;-46
2023/07/05 06:55:48;;;;;;;4.70;1.38;;;15.50;99.90;;;;;;5118571;27;20058;-45
2023/07/05 06:58:15;;;;;;;3.78;1.60;;;15.60;99.90;;;;;;5136537;27;20057;-45
2023/07/05 07:00:41;;;;;;;4.95;1.85;;;15.60;99.90;;;;;;5136573;27;20130;-46
2023/07/05 07:03:06;;;;;;;3.07;1.23;;;15.60;99.90;;;;;;5118237;27;20126;-46
2023/07/05 07:05:32;;;;;;;6.13;1.60;;;15.60;99.90;;;;;;5136968;27;20285;-47
2023/07/05 07:07:59;;;;;;;3.22;1.20;;;15.50;99.90;;;;;;5136817;27;20054;-46
2023/07/05 07:10:25;;;;;;;3.58;1.50;;;15.50;99.90;;;;;;5136769;27;20051;-47
2023/07/05 07:12:50;;;;;;;3.70;1.40;;;15.50;99.90;;;;;;5136438;27;20047;-46
2023/07/05 07:15:16;;;;;;;5.03;1.63;;;15.40;99.90;;;;;;5136175;27;20039;-47
2023/07/05 07:17:42;;;;;;;6.03;1.80;;;15.50;99.90;;;;;;5118255;27;20336;-47
2023/07/05 07:20:08;;;;;;;4.27;1.57;;;15.70;99.90;;;;;;5117878;27;20047;-46
2023/07/05 07:22:34;;;;;;;4.65;2.40;;;15.90;99.90;;;;;;5136127;27;20054;-46
2023/07/05 07:25:00;;;;;;;5.45;1.60;;;16.00;99.90;;;;;;5136300;27;20050;-47
2023/07/05 07:27:25;;;;;;;3.95;1.30;;;16.10;99.90;;;;;;5117663;27;20066;-47
2023/07/05 07:29:54;;;;;;;4.07;1.38;;;16.20;99.90;;;;;;5136010;27;20047;-46
2023/07/05 07:32:20;;;;;;;4.90;1.38;;;16.20;99.90;;;;;;5136012;27;20047;-47
2023/07/05 07:34:46;;;;;;;4.45;1.50;;;16.30;99.90;;;;;;5135916;27;20035;-46
2023/07/05 07:37:11;;;;;;;4.27;1.80;;;16.40;99.90;;;;;;5135752;27;20046;-45
2023/07/05 07:39:37;;;;;;;4.35;1.45;;;16.30;99.90;;;;;;5135875;27;20164;-45
2023/07/05 07:42:03;;;;;;;5.30;1.50;;;16.20;99.90;;;;;;5135694;27;20045;-46
2023/07/05 07:44:29;;;;;;;4.00;1.00;;;16.10;99.90;;;;;;5135610;27;20300;-46
2023/07/05 07:46:57;;;;;;;3.00;1.10;;;16.10;99.90;;;;;;5135421;27;20043;-46
2023/07/05 07:49:22;;;;;;;3.17;1.20;;;16.00;99.90;;;;;;5135651;27;20360;-45
2023/07/05 07:51:48;;;;;;;3.63;1.20;;;16.10;99.90;;;;;;5135808;27;20488;-45
2023/07/05 07:54:20;;;;;;;2.87;1.00;;;16.00;99.90;;;;;;5135632;27;20043;-45
2023/07/05 07:56:47;;;;;;;3.10;1.02;;;16.00;99.90;;;;;;5117161;27;20059;-47
2023/07/05 07:59:15;;;;;;;4.05;1.00;;;16.00;99.90;;;;;;5135147;27;20039;-44
2023/07/05 08:01:41;;;;;;;2.00;0.75;;;15.90;99.90;;;;;;5135908;27;20059;-45
2023/07/05 08:04:11;;;;;;;2.85;1.10;;;15.70;99.90;;;;;;5135337;27;20039;-44
2023/07/05 08:06:38;;;;;;;2.47;1.00;;;15.60;99.90;;;;;;5135400;27;20137;-46
2023/07/05 08:09:06;;;;;;;2.28;0.70;;;15.40;99.90;;;;;;5135237;27;20089;-46
2023/07/05 08:11:33;;;;;;;2.47;0.85;;;15.30;99.90;;;;;;5135220;27;20051;-44
2023/07/05 08:13:59;;;;;;;2.33;0.80;;;15.20;99.90;;;;;;5135229;27;20074;-45
2023/07/05 08:16:24;;;;;;;3.10;0.70;;;15.10;99.90;;;;;;5135220;27;20081;-43
2023/07/05 08:18:51;;;;;;;1.93;0.40;;;14.90;99.90;;;;;;5135082;27;20310;-45
2023/07/05 08:21:16;;;;;;;;;;;14.80;99.90;;;;;;5135511;27;20039;-45
2023/07/05 08:23:43;;;;;;;1.98;0.40;;;14.60;99.90;;;;;;5135041;27;19972;-44
2023/07/05 08:26:10;;;;;;;1.20;0.25;;;14.50;99.90;;;;;;5134984;27;20053;-45
2023/07/05 08:28:37;;;;;;;1.35;0.50;;;14.40;99.90;;;;;;5134981;27;20051;-44
2023/07/05 08:31:05;;;;;;;1.67;0.50;;;14.30;99.90;;;;;;5134918;27;20422;-45
2023/07/05 08:33:32;;;;;;;0.82;0.30;;;14.30;99.90;;;;;;5134758;27;20483;-45
2023/07/05 08:36:04;;;;;;;1.20;0.45;;;14.20;99.90;;;;;;5116760;27;20092;-44
2023/07/05 08:38:30;;;;;;;0.70;0.20;;;14.10;99.90;;;;;;5134607;27;20095;-44
2023/07/05 08:41:24;;;;;;;0.50;0.43;;;14.00;99.90;;;;;;5134448;27;20048;-44
2023/07/05 08:44:18;;;;;;;0.40;0.20;;;13.80;99.90;;;;;;5096066;27;20140;-43
2023/07/05 08:47:02;;;;;;;1.92;0.47;;;13.70;99.90;;;;;;5134802;27;20506;-44
2023/07/05 08:49:48;;;;;;;0.93;0.22;;;13.60;99.90;;;;;;5134830;27;20551;-44
2023/07/05 08:52:32;;;;;;;440.33;62.38;;;13.50;99.90;;;;;;5115952;27;20043;-45
2023/07/05 08:55:02;;;;;;;12.50;4.18;;;13.40;99.90;;;;;;5116485;27;20421;-44
2023/07/05 08:57:33;;;;;;;109.72;18.33;;;13.30;99.90;;;;;;5134301;27;20500;-44
2023/07/05 09:00:11;;;;;;;3.85;1.73;;;13.30;99.90;;;;;;5134807;28;20051;-45
2023/07/05 09:02:37;;;;;;;11.10;6.00;;;13.20;99.90;;;;;;5116336;28;20047;-45
2023/07/05 09:05:12;;;;;;;547.88;83.78;;;13.20;99.90;;;;;;5116381;28;20039;-47
2023/07/05 09:08:06;;;;;;;5.20;1.85;;;13.20;99.90;;;;;;5134529;28;20074;-45
2023/07/05 09:10:50;;;;;;;2.55;0.60;;;13.10;99.90;;;;;;5134533;28;20043;-44
2023/07/05 09:13:42;;;;;;;2.17;0.43;;;13.10;99.90;;;;;;5134444;28;20047;-45
2023/07/05 09:16:29;;;;;;;1.20;0.30;;;13.10;99.90;;;;;;5133781;28;20058;-49
2023/07/05 09:19:22;;;;;;;0.68;0.30;;;13.10;99.90;;;;;;5134802;28;20043;-46
2023/07/05 09:22:01;;;;;;;0.77;0.20;;;13.00;99.90;;;;;;5134697;28;20043;-48
2023/07/05 09:24:30;;;;;;;4.07;0.57;;;13.00;99.90;;;;;;5134300;28;20447;-46
2023/07/05 09:27:12;;;;;;;0.90;0.20;;;13.00;99.90;;;;;;5134299;28;20058;-46
2023/07/05 09:30:00;;;;;;;2.78;0.47;;;13.00;99.90;;;;;;5134510;28;20481;-45
2023/07/05 09:32:36;;;;;;;12.05;1.75;;;13.00;99.90;;;;;;5134443;28;20043;-46
2023/07/05 09:35:03;;;;;;;3.60;1.25;;;13.00;99.90;;;;;;5134244;28;20079;-46
2023/07/05 09:37:33;;;;;;;302.42;44.72;;;13.00;99.90;;;;;;5134102;28;20126;-45
2023/07/05 09:40:19;;;;;;;17.75;5.65;;;13.10;99.90;;;;;;5134101;28;20035;-46
2023/07/05 09:43:24;;;;;;;7.00;1.65;;;13.10;99.90;;;;;;5133972;28;20480;-45
2023/07/05 09:45:50;;;;;;;1.65;0.60;;;13.10;99.90;;;;;;5115376;28;20157;-46
2023/07/05 09:48:17;;;;;;;1.47;0.40;;;13.10;99.90;;;;;;5134114;28;20082;-46
2023/07/05 09:50:52;;;;;;;3.65;0.30;;;13.20;99.90;;;;;;5133933;28;20515;-45
2023/07/05 09:53:39;;;;;;;0.63;0.20;;;13.20;99.90;;;;;;5133936;28;20031;-47
2023/07/05 09:56:11;;;;;;;0.73;0.10;;;13.30;99.90;;;;;;5116738;27;20082;-46
2023/07/05 09:58:39;;;;;;;1.63;0.40;;;13.40;99.90;;;;;;5134280;28;20396;-47
2023/07/05 10:01:11;;;;;;;1.10;0.10;;;13.40;99.90;;;;;;5134140;28;20043;-47
2023/07/05 10:04:03;;;;;;;1.27;0.10;;;13.50;99.90;;;;;;5135093;27;20035;-48
2023/07/05 10:06:29;;;;;;;0.43;0.10;;;13.50;99.90;;;;;;5136972;27;20440;-46
2023/07/05 10:09:00;;;;;;;1.92;0.10;;;13.60;99.90;;;;;;5137675;27;20050;-45
2023/07/05 10:11:33;;;;;;;0.77;0.30;;;13.70;99.90;;;;;;5137818;27;20126;-46
2023/07/05 10:14:06;;;;;;;6.32;0.95;;;13.70;99.90;;;;;;5119693;27;20055;-47
2023/07/05 10:16:52;;;;;;;0.20;0.10;;;13.70;99.90;;;;;;5119146;27;20104;-49
2023/07/05 10:19:24;;;;;;;0.20;0.10;;;13.80;99.90;;;;;;5137505;27;20104;-46
2023/07/05 10:21:57;;;;;;;0.40;0.30;;;13.80;99.90;;;;;;5137413;27;20066;-46
2023/07/05 10:24:24;;;;;;;0.10;0.00;;;13.90;99.90;;;;;;5137308;27;20043;-47
2023/07/05 10:27:00;;;;;;;0.52;0.10;;;14.00;99.90;;;;;;5137348;27;20055;-47
2023/07/05 10:29:26;;;;;;;0.43;0.10;;;14.00;99.90;;;;;;5137077;27;20036;-50
2023/07/05 10:31:56;;;;;;;0.20;0.10;;;14.10;99.90;;;;;;5137333;27;20119;-50
2023/07/05 10:34:23;;;;;;;0.52;0.10;;;14.20;99.90;;;;;;5137191;27;20039;-46
2023/07/05 10:36:50;;;;;;;0.35;0.05;;;14.30;99.90;;;;;;5118784;27;20039;-46
2023/07/05 10:39:26;;;;;;;0.57;0.10;;;14.40;99.90;;;;;;5137033;27;20124;-47
2023/07/05 10:41:57;;;;;;;0.45;0.10;;;14.50;99.90;;;;;;5136959;27;20096;-45
2023/07/05 10:44:32;;;;;;;0.93;0.10;;;14.50;99.90;;;;;;5137048;27;20043;-45
2023/07/05 10:46:59;;;;;;;1.67;0.20;;;14.60;99.90;;;;;;5137287;27;20043;-48
2023/07/05 10:49:27;;;;;;;0.10;0.10;;;14.70;99.90;;;;;;5137044;27;20126;-48
2023/07/05 10:52:01;;;;;;;1.23;0.32;;;14.90;99.90;;;;;;5136785;27;20088;-47
2023/07/05 10:54:44;;;;;;;0.57;0.13;;;15.10;99.90;;;;;;5136768;27;20070;-47
2023/07/05 10:57:28;;;;;;;1.02;0.10;;;15.20;99.90;;;;;;5136966;27;20481;-47
2023/07/05 11:00:17;;;;;;;1.55;0.10;;;15.30;99.90;;;;;;5118683;27;20543;-48
2023/07/05 11:02:55;;;;;;;0.32;0.10;;;15.40;99.90;;;;;;5136519;27;20047;-47
2023/07/05 11:05:39;;;;;;;0.60;0.10;;;15.40;99.90;;;;;;5136600;27;20122;-45
2023/07/05 11:08:14;;;;;;;0.75;0.10;;;15.50;99.90;;;;;;5136598;27;20081;-48
2023/07/05 11:10:41;;;;;;;1.45;0.10;;;15.60;99.90;;;;;;5136645;27;20051;-47
2023/07/05 11:13:14;;;;;;;0.82;0.10;;;15.70;99.90;;;;;;5136256;27;20043;-47
2023/07/05 11:15:40;;;;;;;0.55;0.10;;;15.90;99.90;;;;;;5136119;27;20051;-46
2023/07/05 11:18:07;;;;;;;1.08;0.28;;;16.10;99.90;;;;;;5136351;27;20047;-47
2023/07/05 11:20:39;;;;;;;1.40;0.20;;;16.30;99.90;;;;;;5118203;27;20480;-47
2023/07/05 11:23:08;;;;;;;0.93;0.10;;;16.60;99.90;;;;;;5136217;27;20500;-49
2023/07/05 11:25:52;;;;;;;0.20;0.10;;;16.80;99.90;;;;;;5135968;27;20164;-46
2023/07/05 11:28:34;;;;;;;0.50;0.10;;;17.00;99.90;;;;;;5136155;27;20054;-48
2023/07/05 11:31:01;;;;;;;0.95;0.20;;;17.10;99.90;;;;;;5136109;27;20051;-47
2023/07/05 11:33:27;;;;;;;0.65;0.20;;;17.10;99.90;;;;;;5135969;27;20372;-46
2023/07/05 11:35:54;;;;;;;1.48;0.30;;;17.10;99.90;;;;;;5117593;27;20117;-46
2023/07/05 11:38:39;;;;;;;3.42;0.50;;;17.10;99.90;;;;;;5135672;27;20628;-46
2023/07/05 11:41:29;;;;;;;8.27;0.82;;;17.00;99.90;;;;;;5117726;27;20044;-48
2023/07/05 11:44:01;;;;;;;8.20;0.77;;;16.90;99.90;;;;;;5125489;27;20055;-47
2023/07/05 11:46:38;;;;;;;0.95;0.30;;;16.90;99.90;;;;;;5135636;27;20050;-47
2023/07/05 11:49:30;;;;;;;0.93;0.30;;;17.00;99.90;;;;;;5135738;27;20039;-48
2023/07/05 11:52:17;;;;;;;2.08;0.38;;;17.00;99.90;;;;;;5135672;27;20047;-47
2023/07/05 11:54:52;;;;;;;2.08;0.47;;;17.10;99.90;;;;;;5135427;27;20065;-47
2023/07/05 11:57:18;;;;;;;1.40;0.32;;;17.10;99.90;;;;;;5135628;27;20445;-48
2023/07/05 12:00:17;;;;;;;1.48;0.65;;;17.10;99.90;;;;;;5135503;27;20055;-48
2023/07/05 12:02:51;;;;;;;2.22;0.30;;;17.00;99.90;;;;;;5135387;27;20082;-47
2023/07/05 12:05:21;;;;;;;4.18;0.55;;;17.00;99.90;;;;;;5117043;27;20050;-48
2023/07/05 12:07:58;;;;;;;2.25;0.40;;;16.90;99.90;;;;;;5135329;27;20074;-48
2023/07/05 12:10:30;;;;;;;3.83;0.50;;;16.90;99.90;;;;;;5135376;27;20506;-47
2023/07/05 12:12:56;;;;;;;6.97;0.60;;;16.90;99.90;;;;;;5135261;27;20043;-48
2023/07/05 12:15:21;;;;;;;3.38;0.52;;;16.90;99.90;;;;;;5135337;27;20390;-47
2023/07/05 12:17:47;;;;;;;5.10;0.50;;;16.80;99.90;;;;;;5116861;27;20071;-47
2023/07/05 12:20:49;;;;;;;9.32;1.00;;;16.80;99.90;;;;;;5135211;27;20047;-48
2023/07/05 12:23:17;;;;;;;1.63;0.32;;;16.70;99.90;;;;;;5091274;27;20085;-45
2023/07/05 12:25:50;;;;;;;3.15;0.50;;;16.60;99.90;;;;;;5134941;27;20134;-46
2023/07/05 12:28:19;;;;;;;3.30;0.52;;;16.50;99.90;;;;;;5134052;27;20051;-46
2023/07/05 12:30:45;;;;;;;1.90;0.43;;;16.30;99.90;;;;;;5135000;27;20121;-47
2023/07/05 12:33:26;;;;;;;2.33;0.43;;;16.10;99.90;;;;;;5135024;27;20119;-46
2023/07/05 12:36:11;;;;;;;2.97;0.40;;;15.90;99.90;;;;;;5135173;27;20039;-46
2023/07/05 12:38:39;;;;;;;2.17;0.35;;;15.60;99.90;;;;;;5134878;27;20511;-47
2023/07/05 12:41:13;;;;;;;2.55;0.40;;;15.50;99.90;;;;;;5117209;27;20043;-45
2023/07/05 12:43:39;;;;;;;2.58;0.30;;;15.30;99.90;;;;;;5134879;27;20083;-45
2023/07/05 12:46:26;;;;;;;3.78;0.50;;;15.20;99.90;;;;;;5134677;27;20086;-48
2023/07/05 12:48:52;;;;;;;1.95;0.50;;;15.00;99.90;;;;;;5134598;27;20047;-47
2023/07/05 12:51:24;;;;;;;2.65;0.63;;;14.90;99.90;;;;;;5116438;27;20075;-46
2023/07/05 12:53:57;;;;;;;2.08;0.40;;;14.70;99.90;;;;;;5099798;27;20035;-48
2023/07/05 12:56:35;;;;;;;0.82;0.30;;;14.60;99.90;;;;;;5134513;27;20053;-46
2023/07/05 12:59:07;;;;;;;1.70;0.40;;;14.60;99.90;;;;;;5134590;27;20043;-49
2023/07/05 13:01:40;;;;;;;0.85;0.20;;;14.50;99.90;;;;;;5134522;28;20047;-46
2023/07/05 13:04:12;;;;;;;2.95;0.60;;;14.40;99.90;;;;;;5134502;28;20090;-46